createdAt,value
2019-05-11T00:01:20.151Z,75.90
2019-05-11T00:03:52.994Z,76.05
2019-05-11T00:06:25.788Z,76.01
2019-05-11T00:08:58.589Z,76.26
2019-05-11T00:11:31.383Z,76.32
2019-05-11T00:14:04.205Z,76.37
2019-05-11T00:16:36.990Z,76.54
2019-05-11T00:19:09.835Z,76.58
2019-05-11T00:21:42.625Z,76.69
2019-05-11T00:24:15.661Z,76.87
2019-05-11T00:26:48.552Z,77.13
2019-05-11T00:29:21.449Z,77.40
2019-05-11T00:31:54.323Z,77.58
2019-05-11T00:34:27.150Z,77.67
2019-05-11T00:36:59.927Z,77.76
2019-05-11T00:39:32.754Z,77.82
2019-05-11T00:42:05.641Z,77.96
2019-05-11T00:44:38.448Z,78.14
2019-05-11T00:47:11.290Z,78.05
2019-05-11T00:49:44.082Z,78.07
2019-05-11T00:52:16.968Z,78.10
2019-05-11T00:54:49.770Z,78.19
2019-05-11T00:57:22.628Z,78.15
2019-05-11T00:59:55.436Z,77.91
2019-05-11T01:02:28.226Z,77.61
2019-05-11T01:05:01.060Z,77.81
2019-05-11T01:07:34.189Z,78.09
2019-05-11T01:10:21.752Z,78.09
2019-05-11T01:12:41.976Z,78.00
2019-05-11T01:15:15.326Z,78.25
2019-05-11T01:17:48.254Z,78.20
2019-05-11T01:20:21.157Z,78.47
2019-05-11T01:22:54.052Z,78.15
2019-05-11T01:25:26.817Z,77.96
2019-05-11T01:27:59.632Z,78.02
2019-05-11T01:30:32.729Z,78.43
2019-05-11T01:33:05.513Z,79.08
2019-05-11T01:35:38.321Z,79.15
2019-05-11T01:38:11.134Z,79.65
2019-05-11T01:40:57.538Z,80.09
2019-05-11T01:43:18.491Z,80.65
2019-05-11T01:45:51.284Z,80.77
2019-05-11T01:48:24.117Z,80.71
2019-05-11T01:50:56.971Z,80.65
2019-05-11T01:53:29.745Z,80.52
2019-05-11T01:56:02.535Z,80.36
2019-05-11T01:58:35.341Z,80.06
2019-05-11T02:01:08.123Z,80.15
2019-05-11T02:03:40.948Z,80.08
2019-05-11T02:06:13.716Z,79.29
2019-05-11T02:08:46.487Z,79.19
2019-05-11T02:11:19.349Z,79.32
2019-05-11T02:13:52.124Z,79.10
2019-05-11T02:16:24.908Z,79.55
2019-05-11T02:18:57.711Z,79.78
2019-05-11T02:21:30.570Z,79.58
2019-05-11T02:24:03.337Z,79.41
2019-05-11T02:26:36.209Z,79.38
2019-05-11T02:29:09.131Z,79.83
2019-05-11T02:31:42.928Z,80.01
2019-05-11T02:34:15.815Z,79.98
2019-05-11T02:36:48.596Z,79.63
2019-05-11T02:39:21.493Z,79.60
2019-05-11T02:41:55.233Z,79.97
2019-05-11T02:44:29.136Z,79.77
2019-05-11T02:47:01.948Z,79.78
2019-05-11T02:49:34.858Z,79.34
2019-05-11T02:52:08.401Z,79.39
2019-05-11T02:54:42.741Z,79.70
2019-05-11T02:57:15.578Z,79.53
2019-05-11T02:59:48.419Z,79.31
2019-05-11T03:02:21.204Z,79.47
2019-05-11T03:04:54.108Z,80.16
2019-05-11T03:07:26.954Z,81.40
2019-05-11T03:09:59.757Z,80.72
2019-05-11T03:12:32.666Z,81.32
2019-05-11T03:15:06.079Z,81.13
2019-05-11T03:17:38.863Z,80.45
2019-05-11T03:20:11.806Z,80.40
2019-05-11T03:22:44.608Z,80.23
2019-05-11T03:25:17.492Z,80.77
2019-05-11T03:27:50.354Z,80.41
2019-05-11T03:30:23.841Z,79.91
2019-05-11T03:32:56.760Z,80.20
2019-05-11T03:35:29.669Z,80.46
2019-05-11T03:38:02.730Z,80.13
2019-05-11T03:40:35.631Z,80.15
2019-05-11T03:43:08.468Z,80.01
2019-05-11T03:45:41.420Z,80.18
2019-05-11T03:48:14.190Z,80.52
2019-05-11T03:50:47.016Z,80.72
2019-05-11T03:53:19.878Z,80.98
2019-05-11T03:55:52.767Z,81.70
2019-05-11T03:58:26.886Z,81.75
2019-05-11T04:00:59.839Z,81.68
2019-05-11T04:03:32.831Z,81.99
2019-05-11T04:06:05.749Z,82.29
2019-05-11T04:08:39.605Z,82.11
2019-05-11T04:11:12.462Z,82.16
2019-05-11T04:13:45.448Z,82.08
2019-05-11T04:16:18.271Z,82.01
2019-05-11T04:18:51.362Z,82.05
2019-05-11T04:21:24.318Z,82.33
2019-05-11T04:23:57.112Z,82.63
2019-05-11T04:26:29.919Z,83.12
2019-05-11T04:29:02.912Z,83.47
2019-05-11T04:31:36.600Z,83.50
2019-05-11T04:34:09.406Z,83.82
2019-05-11T04:36:42.310Z,83.23
2019-05-11T04:39:15.346Z,83.15
2019-05-11T04:41:48.318Z,82.66
2019-05-11T04:44:21.257Z,82.38
2019-05-11T04:46:54.094Z,82.12
2019-05-11T04:49:27.072Z,82.25
2019-05-11T04:52:00.138Z,82.47
2019-05-11T04:54:34.541Z,82.78
2019-05-11T04:57:07.709Z,83.07
2019-05-11T04:59:41.077Z,83.17
2019-05-11T05:02:13.913Z,83.55
2019-05-11T05:04:47.100Z,83.79
2019-05-11T05:07:20.255Z,83.95
2019-05-11T05:09:53.079Z,83.64
2019-05-11T05:12:26.354Z,83.71
2019-05-11T05:14:59.356Z,84.01
2019-05-11T05:17:32.356Z,83.96
2019-05-11T05:20:07.494Z,83.84
2019-05-11T05:22:40.340Z,83.69
2019-05-11T05:25:13.251Z,83.02
2019-05-11T05:27:46.155Z,82.44
2019-05-11T05:30:19.076Z,81.95
2019-05-11T05:32:52.110Z,81.61
2019-05-11T05:35:24.917Z,81.58
2019-05-11T05:37:57.967Z,81.45
2019-05-11T05:40:30.907Z,81.06
2019-05-11T05:43:03.710Z,81.10
2019-05-11T05:45:36.609Z,80.69
2019-05-11T05:48:09.492Z,80.43
2019-05-11T05:50:42.326Z,79.84
2019-05-11T05:53:15.187Z,80.37
2019-05-11T05:55:48.247Z,79.79
2019-05-11T05:58:21.087Z,79.90
2019-05-11T06:00:53.908Z,79.56
2019-05-11T06:03:26.797Z,78.72
2019-05-11T06:05:59.617Z,78.84
2019-05-11T06:08:32.637Z,78.54
2019-05-11T06:11:05.481Z,78.84
2019-05-11T06:13:45.169Z,78.58
2019-05-11T06:16:13.045Z,78.01
2019-05-11T06:18:46.027Z,77.89
2019-05-11T06:21:18.930Z,77.99
2019-05-11T06:23:51.851Z,77.45
2019-05-11T06:26:25.121Z,77.23
2019-05-11T06:28:58.045Z,77.36
2019-05-11T06:31:33.383Z,77.73
2019-05-11T06:34:06.648Z,76.35
2019-05-11T06:36:40.163Z,75.75
2019-05-11T06:39:13.213Z,75.98
2019-05-11T06:41:46.253Z,76.38
2019-05-11T06:44:19.131Z,76.00
2019-05-11T06:46:52.020Z,75.71
2019-05-11T06:49:25.140Z,75.68
2019-05-11T06:51:58.041Z,74.55
2019-05-11T06:54:30.914Z,74.59
2019-05-11T06:57:03.711Z,74.32
2019-05-11T06:59:36.647Z,74.03
2019-05-11T07:02:09.544Z,73.16
2019-05-11T07:04:42.614Z,71.91
2019-05-11T07:07:15.553Z,71.55
2019-05-11T07:09:48.574Z,70.78
2019-05-11T07:12:21.577Z,71.04
2019-05-11T07:14:54.730Z,70.44
2019-05-11T07:17:27.809Z,69.58
2019-05-11T07:20:00.844Z,69.35
2019-05-11T07:22:33.788Z,69.88
2019-05-11T07:25:07.264Z,68.95
2019-05-11T07:27:40.080Z,68.29
2019-05-11T07:30:13.383Z,67.79
2019-05-11T07:32:48.179Z,67.76
2019-05-11T07:35:21.351Z,66.72
2019-05-11T07:37:54.177Z,67.24
2019-05-11T07:40:27.949Z,66.77
2019-05-11T07:43:00.924Z,66.70
2019-05-11T07:45:33.795Z,64.94
2019-05-11T07:48:08.017Z,63.79
2019-05-11T07:50:41.122Z,63.54
2019-05-11T07:53:13.991Z,62.45
2019-05-11T07:55:48.523Z,61.86
2019-05-11T07:58:22.720Z,60.70
2019-05-11T08:00:58.063Z,59.73
2019-05-11T08:03:30.478Z,59.96
2019-05-11T08:06:03.493Z,59.19
2019-05-11T08:08:38.512Z,57.92
2019-05-11T08:11:12.754Z,55.42
2019-05-11T08:13:47.906Z,56.59
2019-05-11T08:16:20.401Z,56.61
2019-05-11T08:18:53.329Z,54.82
2019-05-11T08:21:28.407Z,53.61
2019-05-11T08:24:00.874Z,54.03
2019-05-11T08:26:33.753Z,52.81
2019-05-11T08:29:08.161Z,51.00
2019-05-11T08:31:41.512Z,49.54
2019-05-11T08:34:15.308Z,49.51
2019-05-11T08:36:48.497Z,48.91
2019-05-11T08:39:21.428Z,49.26
2019-05-11T08:41:54.506Z,48.95
2019-05-11T08:44:28.762Z,48.32
2019-05-11T08:47:02.638Z,48.46
2019-05-11T08:49:37.949Z,46.19
2019-05-11T08:52:10.226Z,47.11
2019-05-11T08:54:43.295Z,46.50
2019-05-11T08:57:18.011Z,46.63
2019-05-11T08:59:51.399Z,46.75
2019-05-11T09:02:24.700Z,45.60
2019-05-11T09:04:58.899Z,43.77
2019-05-11T09:07:32.530Z,45.15
2019-05-11T09:10:07.952Z,44.69
2019-05-11T09:12:40.343Z,43.30
2019-05-11T09:15:28.070Z,44.82
2019-05-11T09:17:48.787Z,42.86
2019-05-11T09:20:21.750Z,43.71
2019-05-11T09:22:54.668Z,43.02
2019-05-11T09:25:27.818Z,42.29
2019-05-11T09:28:00.663Z,42.33
2019-05-11T09:30:33.542Z,41.26
2019-05-11T09:33:08.428Z,42.23
2019-05-11T09:35:49.817Z,42.51
2019-05-11T09:38:15.607Z,41.90
2019-05-11T09:40:48.423Z,43.19
2019-05-11T09:43:21.243Z,42.16
2019-05-11T09:45:54.238Z,41.25
2019-05-11T09:48:28.383Z,39.74
2019-05-11T09:51:01.529Z,39.85
2019-05-11T09:53:34.383Z,40.53
2019-05-11T09:56:08.077Z,40.11
2019-05-11T09:58:41.169Z,38.54
2019-05-11T10:01:14.119Z,38.65
2019-05-11T10:03:48.108Z,39.01
2019-05-11T10:06:22.377Z,38.62
2019-05-11T10:08:57.733Z,37.28
2019-05-11T10:11:29.861Z,37.71
2019-05-11T10:14:02.787Z,36.77
2019-05-11T10:16:38.622Z,37.56
2019-05-11T10:19:11.211Z,37.30
2019-05-11T10:21:44.244Z,37.41
2019-05-11T10:24:17.842Z,35.42
2019-05-11T10:26:51.070Z,33.48
2019-05-11T10:29:24.116Z,33.55
2019-05-11T10:31:58.822Z,32.83
2019-05-11T10:34:32.168Z,33.44
2019-05-11T10:37:05.211Z,32.97
2019-05-11T10:39:38.445Z,34.02
2019-05-11T10:42:12.490Z,33.72
2019-05-11T10:44:47.696Z,33.75
2019-05-11T10:47:20.279Z,35.03
2019-05-11T10:49:53.167Z,34.96
2019-05-11T10:52:28.391Z,35.05
2019-05-11T10:55:00.629Z,34.48
2019-05-11T10:57:33.697Z,34.23
2019-05-11T11:00:09.292Z,32.32
2019-05-11T11:02:42.168Z,31.44
2019-05-11T11:05:15.108Z,31.97
2019-05-11T11:07:48.510Z,30.59
2019-05-11T11:10:21.576Z,30.97
2019-05-11T11:12:54.374Z,31.81
2019-05-11T11:15:28.802Z,31.23
2019-05-11T11:18:02.815Z,29.99
2019-05-11T11:20:35.665Z,28.83
2019-05-11T11:23:08.962Z,29.46
2019-05-11T11:25:42.549Z,28.99
2019-05-11T11:28:17.194Z,29.37
2019-05-11T11:30:50.016Z,29.79
2019-05-11T11:33:22.855Z,29.48
2019-05-11T11:35:57.800Z,31.09
2019-05-11T11:38:30.165Z,31.32
2019-05-11T11:41:03.306Z,31.36
2019-05-11T11:43:37.758Z,31.06
2019-05-11T11:46:10.756Z,30.65
2019-05-11T11:48:43.617Z,30.77
2019-05-11T11:51:18.656Z,31.14
2019-05-11T11:53:51.112Z,31.80
2019-05-11T11:56:23.911Z,31.38
2019-05-11T11:58:57.920Z,32.56
2019-05-11T12:01:31.031Z,32.44
2019-05-11T12:04:03.967Z,31.99
2019-05-11T12:06:38.640Z,31.13
2019-05-11T12:09:11.416Z,32.01
2019-05-11T12:11:44.310Z,33.27
2019-05-11T12:14:18.711Z,32.15
2019-05-11T12:17:04.000Z,32.38
2019-05-11T12:19:27.881Z,33.41
2019-05-11T12:22:01.097Z,34.96
2019-05-11T12:24:33.905Z,34.85
2019-05-11T12:27:07.744Z,35.35
2019-05-11T12:29:40.732Z,34.62
2019-05-11T12:32:19.670Z,35.55
2019-05-11T12:34:52.502Z,36.22
2019-05-11T12:37:25.285Z,37.13
2019-05-11T12:39:58.307Z,36.60
2019-05-11T12:42:31.190Z,36.74
2019-05-11T12:45:04.350Z,36.87
2019-05-11T12:47:38.602Z,36.75
2019-05-11T12:50:12.342Z,36.78
2019-05-11T12:52:47.543Z,37.33
2019-05-11T12:55:19.863Z,36.76
2019-05-11T12:57:52.801Z,36.85
2019-05-11T13:00:30.875Z,36.74
2019-05-11T13:03:01.489Z,36.75
2019-05-11T13:05:34.355Z,36.39
2019-05-11T13:08:08.028Z,36.63
2019-05-11T13:10:41.135Z,35.87
2019-05-11T13:13:14.044Z,37.14
2019-05-11T13:15:47.984Z,36.65
2019-05-11T13:18:21.073Z,36.62
2019-05-11T13:20:53.880Z,36.44
2019-05-11T13:23:27.787Z,36.56
2019-05-11T13:26:00.900Z,35.47
2019-05-11T13:28:33.931Z,35.63
2019-05-11T13:31:08.268Z,35.56
2019-05-11T13:33:41.266Z,36.33
2019-05-11T13:36:14.102Z,36.00
2019-05-11T13:38:48.337Z,35.44
2019-05-11T13:41:21.449Z,36.74
2019-05-11T13:43:54.283Z,36.25
2019-05-11T13:46:28.279Z,36.68
2019-05-11T13:49:01.339Z,36.48
2019-05-11T13:51:34.254Z,36.97
2019-05-11T13:54:07.927Z,37.07
2019-05-11T13:56:41.097Z,37.36
2019-05-11T13:59:13.921Z,37.81
2019-05-11T14:01:47.801Z,38.37
2019-05-11T14:04:20.959Z,37.62
2019-05-11T14:06:53.920Z,38.27
2019-05-11T14:09:28.833Z,37.93
2019-05-11T14:12:02.002Z,37.52
2019-05-11T14:14:34.861Z,38.05
2019-05-11T14:17:08.403Z,39.59
2019-05-11T14:19:41.304Z,40.31
2019-05-11T14:22:14.185Z,41.02
2019-05-11T14:24:48.268Z,40.31
2019-05-11T14:27:22.968Z,40.36
2019-05-11T14:29:57.721Z,40.49
2019-05-11T14:32:30.571Z,41.29
2019-05-11T14:35:03.457Z,40.82
2019-05-11T14:37:37.956Z,41.01
2019-05-11T14:40:11.011Z,40.86
2019-05-11T14:42:43.928Z,41.52
2019-05-11T14:45:18.714Z,40.62
2019-05-11T14:47:51.324Z,40.13
2019-05-11T14:50:24.141Z,39.89
2019-05-11T14:52:58.092Z,40.44
2019-05-11T14:55:31.133Z,40.00
2019-05-11T14:58:05.531Z,40.03
2019-05-11T15:00:39.262Z,40.22
2019-05-11T15:03:12.384Z,40.67
2019-05-11T15:05:47.358Z,40.75
2019-05-11T15:08:20.226Z,41.28
2019-05-11T15:10:53.111Z,41.23
2019-05-11T15:13:25.913Z,42.59
2019-05-11T15:16:00.592Z,42.15
2019-05-11T15:18:38.522Z,42.54
2019-05-11T15:21:08.364Z,42.84
2019-05-11T15:23:41.303Z,43.12
2019-05-11T15:26:14.159Z,43.21
2019-05-11T15:28:48.652Z,43.73
2019-05-11T15:31:22.572Z,43.87
2019-05-11T15:33:57.625Z,44.26
2019-05-11T15:36:30.329Z,45.52
2019-05-11T15:39:03.322Z,46.50
2019-05-11T15:41:38.823Z,46.47
2019-05-11T15:44:12.902Z,46.06
2019-05-11T15:46:47.796Z,45.91
2019-05-11T15:49:20.264Z,46.09
2019-05-11T15:51:53.187Z,46.04
2019-05-11T15:54:28.661Z,46.38
2019-05-11T15:57:00.751Z,46.87
2019-05-11T15:59:33.682Z,46.68
2019-05-11T16:02:08.628Z,47.90
2019-05-11T16:04:41.544Z,48.21
2019-05-11T16:07:15.532Z,47.36
2019-05-11T16:09:48.764Z,47.94
2019-05-11T16:12:21.694Z,48.21
2019-05-11T16:14:54.583Z,49.13
2019-05-11T16:17:27.444Z,48.33
2019-05-11T16:20:00.450Z,48.64
2019-05-11T16:22:33.481Z,48.27
2019-05-11T16:25:08.633Z,48.27
2019-05-11T16:27:41.437Z,48.68
2019-05-11T16:30:14.869Z,49.06
2019-05-11T16:32:48.187Z,49.33
2019-05-11T16:35:21.263Z,49.64
2019-05-11T16:37:54.187Z,49.80
2019-05-11T16:40:29.432Z,49.70
2019-05-11T16:43:01.825Z,49.32
2019-05-11T16:45:34.995Z,50.03
2019-05-11T16:48:08.109Z,49.78
2019-05-11T16:50:40.984Z,49.87
2019-05-11T16:53:13.798Z,49.08
2019-05-11T16:55:49.224Z,49.75
2019-05-11T16:58:23.763Z,49.98
2019-05-11T17:00:58.207Z,50.02
2019-05-11T17:03:31.541Z,50.21
2019-05-11T17:06:04.502Z,50.17
2019-05-11T17:08:39.438Z,50.19
2019-05-11T17:11:12.489Z,50.42
2019-05-11T17:13:45.471Z,50.76
2019-05-11T17:16:18.707Z,50.80
2019-05-11T17:18:51.906Z,50.71
2019-05-11T17:21:25.002Z,50.87
2019-05-11T17:23:58.034Z,50.48
2019-05-11T17:26:31.021Z,50.79
2019-05-11T17:29:03.990Z,50.63
2019-05-11T17:31:38.170Z,51.04
2019-05-11T17:34:11.303Z,51.15
2019-05-11T17:36:44.269Z,51.46
2019-05-11T17:39:18.825Z,51.80
2019-05-11T17:41:52.544Z,51.75
2019-05-11T17:44:25.468Z,51.54
2019-05-11T17:46:58.488Z,52.02
2019-05-11T17:49:31.873Z,52.22
2019-05-11T17:52:05.084Z,52.24
2019-05-11T17:54:39.207Z,52.41
2019-05-11T17:57:12.802Z,52.64
2019-05-11T17:59:47.593Z,52.93
2019-05-11T18:02:20.954Z,53.22
2019-05-11T18:04:58.445Z,53.46
2019-05-11T18:07:31.780Z,53.36
2019-05-11T18:10:04.858Z,53.25
2019-05-11T18:12:39.199Z,53.38
2019-05-11T18:15:12.528Z,53.59
2019-05-11T18:17:49.234Z,54.02
2019-05-11T18:20:22.979Z,53.68
2019-05-11T18:22:57.792Z,53.42
2019-05-11T18:25:30.858Z,53.17
2019-05-11T18:28:03.834Z,53.26
2019-05-11T18:30:38.625Z,54.18
2019-05-11T18:33:12.377Z,54.07
2019-05-11T18:35:45.248Z,54.30
2019-05-11T18:38:18.664Z,54.56
2019-05-11T18:40:51.633Z,54.45
2019-05-11T18:43:24.528Z,54.15
2019-05-11T18:45:58.295Z,53.95
2019-05-11T18:48:31.483Z,53.37
2019-05-11T18:51:04.397Z,53.71
2019-05-11T18:53:37.606Z,53.53
2019-05-11T18:56:10.505Z,54.32
2019-05-11T18:58:43.735Z,54.85
2019-05-11T19:01:17.859Z,55.30
2019-05-11T19:03:51.047Z,55.65
2019-05-11T19:06:24.069Z,56.23
2019-05-11T19:08:58.114Z,56.46
2019-05-11T19:11:31.225Z,57.37
2019-05-11T19:14:04.457Z,58.01
2019-05-11T19:16:38.989Z,58.70
2019-05-11T19:19:12.379Z,59.66
2019-05-11T19:21:48.175Z,58.94
2019-05-11T19:24:21.141Z,58.87
2019-05-11T19:26:54.027Z,59.50
2019-05-11T19:29:28.291Z,59.13
2019-05-11T19:32:01.511Z,59.05
2019-05-11T19:34:34.572Z,58.24
2019-05-11T19:37:08.623Z,58.12
2019-05-11T19:39:41.898Z,57.54
2019-05-11T19:42:14.903Z,57.92
2019-05-11T19:44:48.043Z,58.01
2019-05-11T19:47:21.188Z,57.98
2019-05-11T19:49:54.347Z,57.49
2019-05-11T19:52:28.166Z,56.64
2019-05-11T19:55:01.871Z,56.90
2019-05-11T19:57:34.970Z,56.95
2019-05-11T20:00:08.054Z,56.80
2019-05-11T20:02:40.969Z,57.07
2019-05-11T20:05:14.300Z,57.03
2019-05-11T20:07:48.661Z,57.17
2019-05-11T20:10:22.094Z,57.99
2019-05-11T20:12:55.053Z,58.68
2019-05-11T20:15:27.966Z,59.21
2019-05-11T20:18:00.952Z,59.60
2019-05-11T20:20:33.972Z,59.97
2019-05-11T20:23:07.790Z,59.66
2019-05-11T20:25:40.905Z,60.75
2019-05-11T20:28:13.871Z,60.90
2019-05-11T20:30:48.257Z,60.69
2019-05-11T20:33:21.255Z,61.11
2019-05-11T20:35:54.374Z,61.62
2019-05-11T20:38:28.505Z,62.90
2019-05-11T20:41:01.604Z,62.34
2019-05-11T20:43:34.585Z,62.79
2019-05-11T20:46:09.081Z,62.83
2019-05-11T20:48:43.115Z,62.80
2019-05-11T20:51:32.205Z,63.05
2019-05-11T20:53:50.903Z,63.14
2019-05-11T20:56:23.822Z,62.75
2019-05-11T20:59:00.029Z,62.87
2019-05-11T21:01:33.083Z,63.23
2019-05-11T21:04:08.415Z,63.08
2019-05-11T21:06:41.202Z,62.87
2019-05-11T21:09:14.330Z,62.27
2019-05-11T21:11:47.969Z,62.32
2019-05-11T21:14:21.071Z,61.62
2019-05-11T21:16:54.044Z,61.09
2019-05-11T21:19:28.347Z,61.07
2019-05-11T21:22:01.539Z,61.14
2019-05-11T21:24:37.980Z,61.68
2019-05-11T21:27:11.051Z,61.64
2019-05-11T21:29:43.873Z,62.08
2019-05-11T21:32:18.023Z,62.91
2019-05-11T21:34:51.057Z,63.53
2019-05-11T21:37:23.881Z,63.34
2019-05-11T21:39:57.789Z,63.56
2019-05-11T21:42:30.993Z,63.95
2019-05-11T21:45:04.419Z,63.93
2019-05-11T21:47:38.681Z,63.98
2019-05-11T21:50:13.042Z,64.51
2019-05-11T21:52:48.305Z,64.49
2019-05-11T21:55:20.611Z,64.54
2019-05-11T21:57:53.471Z,64.00
2019-05-11T22:00:28.174Z,64.60
2019-05-11T22:03:02.753Z,64.05
2019-05-11T22:05:38.044Z,63.74
2019-05-11T22:08:10.339Z,64.09
2019-05-11T22:10:43.445Z,64.01
2019-05-11T22:13:18.100Z,64.21
2019-05-11T22:15:50.911Z,63.75
2019-05-11T22:18:30.990Z,64.50
2019-05-11T22:20:59.011Z,64.83
2019-05-11T22:23:31.900Z,65.03
2019-05-11T22:26:07.597Z,64.96
2019-05-11T22:28:39.858Z,65.76
2019-05-11T22:31:12.666Z,65.60
2019-05-11T22:33:47.891Z,65.99
2019-05-11T22:36:19.978Z,66.10
2019-05-11T22:38:52.858Z,66.11
2019-05-11T22:41:25.722Z,65.97
2019-05-11T22:43:58.580Z,66.54
2019-05-11T22:46:31.535Z,67.48
2019-05-11T22:49:04.409Z,68.77
2019-05-11T22:51:37.336Z,67.35
2019-05-11T22:54:11.128Z,66.50
2019-05-11T22:56:44.101Z,67.91
2019-05-11T22:59:18.491Z,69.39
2019-05-11T23:01:51.477Z,70.51
2019-05-11T23:04:24.440Z,70.55
2019-05-11T23:06:58.451Z,70.33
2019-05-11T23:09:31.390Z,70.29
2019-05-11T23:12:04.296Z,70.12
2019-05-11T23:14:37.801Z,69.50
2019-05-11T23:17:10.913Z,69.46
2019-05-11T23:19:44.010Z,69.58
2019-05-11T23:22:18.333Z,69.86
2019-05-11T23:24:51.757Z,69.90
2019-05-11T23:27:24.771Z,70.02
2019-05-11T23:29:58.167Z,70.71
2019-05-11T23:32:31.133Z,70.96
2019-05-11T23:35:03.953Z,71.34
2019-05-11T23:37:38.660Z,71.62
2019-05-11T23:40:12.972Z,71.80
2019-05-11T23:42:48.664Z,72.00
2019-05-11T23:45:21.379Z,72.23
2019-05-11T23:47:54.179Z,72.01
2019-05-11T23:50:28.159Z,72.08
2019-05-11T23:53:06.359Z,72.42
2019-05-11T23:55:37.966Z,72.26
2019-05-11T23:58:10.628Z,72.53
